Time;durP1;ratioP1;P1;durP2;ratioP2;P2;SDS_P1;SDS_P2;PMS_P1;PMS_P2;Temp;Humidity;BMP_temperature;BMP_pressure;BME280_temperature;BME280_humidity;BME280_pressure;Samples;Min_cycle;Max_cycle;Signal;HPM_P1;HPM_P2
2023/05/16 00:00:47;;;;;;;20.08;4.18;;;;;;;9.18;100.00;101849.72;5032945;28;20032;-70
2023/05/16 00:03:12;;;;;;;17.77;4.03;;;;;;;9.20;100.00;101860.16;5033925;28;20025;-70
2023/05/16 00:05:37;;;;;;;18.02;3.85;;;;;;;9.15;100.00;101865.34;5032822;28;20429;-71
2023/05/16 00:08:03;;;;;;;14.70;3.40;;;;;;;9.13;100.00;101865.34;5033723;28;20025;-70
2023/05/16 00:10:28;;;;;;;18.67;4.30;;;;;;;9.12;100.00;101868.84;5033691;28;20033;-70
2023/05/16 00:12:55;;;;;;;16.45;3.50;;;;;;;9.10;100.00;101867.97;5033009;28;20173;-70
2023/05/16 00:15:22;;;;;;;10.02;3.35;;;;;;;9.01;100.00;101856.69;5033798;28;20025;-71
2023/05/16 00:17:50;;;;;;;17.40;3.80;;;;;;;9.00;100.00;101874.03;5033096;28;20078;-70
2023/05/16 00:20:21;;;;;;;15.25;3.92;;;;;;;8.89;100.00;101874.06;5032168;28;20045;-70
2023/05/16 00:22:47;;;;;;;19.20;3.38;;;;;;;8.76;100.00;101874.03;5032830;28;20030;-70
2023/05/16 00:25:12;;;;;;;11.90;2.97;;;;;;;8.66;100.00;101862.75;5033446;28;20043;-70
2023/05/16 00:27:37;;;;;;;19.33;4.07;;;;;;;8.59;100.00;101867.09;5032572;28;20037;-70
2023/05/16 00:30:03;;;;;;;13.82;3.38;;;;;;;8.50;100.00;101861.91;5032067;28;20140;-70
2023/05/16 00:32:28;;;;;;;19.67;3.42;;;;;;;8.47;100.00;101864.50;5033399;28;20021;-70
2023/05/16 00:34:53;;;;;;;16.23;3.05;;;;;;;8.39;100.00;101868.78;5031801;28;20029;-70
2023/05/16 00:37:19;;;;;;;16.05;3.53;;;;;;;8.30;100.00;101873.94;5033413;28;20023;-70
2023/05/16 00:39:44;;;;;;;20.55;3.45;;;;;;;8.23;100.00;101861.78;5032860;28;20389;-70
2023/05/16 00:42:09;;;;;;;13.10;3.75;;;;;;;8.12;100.00;101870.44;5032634;28;20064;-70
2023/05/16 00:44:35;;;;;;;16.52;3.58;;;;;;;8.10;100.00;101879.94;5032870;28;20041;-70
2023/05/16 00:47:01;;;;;;;15.15;3.60;;;;;;;8.01;100.00;101874.72;5032996;28;20033;-70
2023/05/16 00:49:27;;;;;;;22.73;4.03;;;;;;;7.95;100.00;101870.38;5032279;28;20037;-70
2023/05/16 00:51:53;;;;;;;15.13;3.00;;;;;;;7.94;100.00;101875.53;5032822;28;20025;-70
2023/05/16 00:54:21;;;;;;;22.05;3.55;;;;;;;7.86;100.00;101874.66;5033204;28;20025;-70
2023/05/16 00:56:47;;;;;;;15.10;3.30;;;;;;;7.84;100.00;101868.59;5031857;28;20037;-70
2023/05/16 00:59:12;;;;;;;21.52;3.40;;;;;;;7.79;100.00;101883.28;5033129;28;20381;-71
2023/05/16 01:01:38;;;;;;;10.52;2.90;;;;;;;7.70;100.00;101877.19;5032529;28;20069;-70
2023/05/16 01:04:04;;;;;;;18.75;2.78;;;;;;;7.67;100.00;101881.50;5032471;28;20092;-69
2023/05/16 01:06:30;;;;;;;19.45;3.22;;;;;;;7.65;100.00;101885.78;5033007;28;20101;-70
2023/05/16 01:08:58;;;;;;;12.77;3.17;;;;;;;7.57;100.00;101877.97;5031321;28;20417;-71
2023/05/16 01:11:34;;;;;;;20.48;3.13;;;;;;;7.56;100.00;101894.41;5032964;28;20033;-70
2023/05/16 01:14:08;;;;;;;13.57;3.30;;;;;;;7.48;100.00;101898.69;5032531;28;20050;-70
2023/05/16 01:16:57;;;;;;;18.00;2.95;;;;;;;7.40;100.00;101885.66;5030653;28;20040;-70
2023/05/16 01:19:50;;;;;;;12.43;4.28;;;;;;;7.37;100.00;101892.56;5032778;28;20021;-70
2023/05/16 01:22:27;;;;;;;17.15;3.13;;;;;;;7.35;100.00;101896.88;5032589;28;20025;-70
2023/05/16 01:25:08;;;;;;;15.35;3.33;;;;;;;7.32;100.00;101894.25;5031366;28;20100;-70
2023/05/16 01:27:36;;;;;;;13.48;2.85;;;;;;;7.26;100.00;101895.97;5032706;28;20025;-70
2023/05/16 01:30:12;;;;;;;12.75;2.90;;;;;;;7.21;100.00;101905.41;5030634;28;20509;-70
2023/05/16 01:32:37;;;;;;;18.90;3.33;;;;;;;7.15;100.00;101888.94;5052828;28;20075;-70
2023/05/16 01:35:04;;;;;;;17.27;2.83;;;;;;;7.17;100.00;101903.66;5044857;28;20057;-70
2023/05/16 01:37:35;;;;;;;13.60;3.03;;;;;;;7.10;100.00;101895.84;5037471;28;20072;-70
2023/05/16 01:40:11;;;;;;;13.93;3.55;;;;;;;7.10;100.00;101899.28;5037787;28;20021;-70
2023/05/16 01:42:43;;;;;;;16.52;2.60;;;;;;;7.05;100.00;101900.97;5038222;28;20104;-70
2023/05/16 01:45:13;;;;;;;13.90;3.03;;;;;;;7.03;100.00;101897.53;5038021;28;20494;-70
2023/05/16 01:47:41;;;;;;;15.07;2.80;;;;;;;6.94;100.00;101892.25;5039082;28;20070;-70
2023/05/16 01:50:12;;;;;;;14.95;2.50;;;;;;;6.90;100.00;101898.25;5039095;28;20048;-70
2023/05/16 01:52:46;;;;;;;15.73;3.15;;;;;;;6.84;100.00;101893.03;5038122;28;20065;-71
2023/05/16 01:55:22;;;;;;;13.32;2.58;;;;;;;6.81;100.00;101906.81;5038860;28;20021;-70
2023/05/16 01:57:48;;;;;;;13.25;2.60;;;;;;;6.80;100.00;101913.75;5037994;28;20540;-71
2023/05/16 02:00:13;;;;;;;13.18;2.85;;;;;;;6.79;100.00;101908.53;5051468;28;20389;-70
2023/05/16 02:02:39;;;;;;;18.20;3.20;;;;;;;6.74;100.00;101920.59;5036789;28;20038;-70
2023/05/16 02:05:05;;;;;;;13.20;2.70;;;;;;;6.73;100.00;101919.69;5035687;28;20036;-70
2023/05/16 02:07:30;;;;;;;17.65;3.47;;;;;;;6.71;100.00;101924.00;5038080;28;20112;-70
2023/05/16 02:09:55;;;;;;;14.30;2.65;;;;;;;6.66;100.00;101922.22;5038447;28;20032;-70
2023/05/16 02:12:24;;;;;;;15.98;2.88;;;;;;;6.58;100.00;101914.38;5037871;28;20013;-70
2023/05/16 02:14:49;;;;;;;12.68;2.70;;;;;;;6.57;100.00;101923.88;5038662;28;20100;-70
2023/05/16 02:17:15;;;;;;;17.63;3.20;;;;;;;6.55;100.00;101924.72;5038652;28;20045;-70
2023/05/16 02:19:40;;;;;;;14.77;2.92;;;;;;;6.52;100.00;101919.50;5037580;28;20396;-70
2023/05/16 02:22:05;;;;;;;12.45;2.65;;;;;;;6.48;100.00;101913.41;5038822;28;20029;-70
2023/05/16 02:24:30;;;;;;;16.45;2.83;;;;;;;6.44;100.00;101915.94;5038652;28;20026;-70
2023/05/16 02:26:56;;;;;;;12.85;2.78;;;;;;;6.42;100.00;101915.94;5037586;28;20107;-71
2023/05/16 02:29:21;;;;;;;12.90;2.70;;;;;;;6.42;100.00;101915.06;5038441;28;20120;-70
2023/05/16 02:31:47;;;;;;;20.27;3.35;;;;;;;6.38;100.00;101918.50;5038464;28;20104;-70
2023/05/16 02:34:12;;;;;;;17.33;3.05;;;;;;;6.36;100.00;101922.78;5037909;28;20029;-70
2023/05/16 02:36:37;;;;;;;12.27;2.45;;;;;;;6.35;100.00;101931.41;5038384;28;20029;-70
2023/05/16 02:39:03;;;;;;;14.63;3.10;;;;;;;6.26;100.00;101925.25;5038696;28;20465;-70
2023/05/16 02:41:28;;;;;;;10.85;3.40;;;;;;;6.31;100.00;101935.66;5037713;28;20124;-70
2023/05/16 02:43:54;;;;;;;9.40;2.92;;;;;;;6.25;100.00;101933.03;5035702;28;20049;-70
2023/05/16 02:46:31;;;;;;;21.17;3.83;;;;;;;6.23;100.00;101943.34;5035354;28;20481;-70
2023/05/16 02:48:56;;;;;;;19.38;3.40;;;;;;;6.18;100.00;101937.25;5034300;28;20425;-70
2023/05/16 02:51:24;;;;;;;12.98;2.70;;;;;;;6.21;100.00;101957.13;5035263;28;20021;-70
2023/05/16 02:53:53;;;;;;;16.17;2.58;;;;;;;6.21;100.00;101945.06;5021948;28;20029;-70
2023/05/16 02:56:20;;;;;;;12.32;2.72;;;;;;;6.22;100.00;101951.97;5032203;28;20071;-70
2023/05/16 02:58:47;;;;;;;12.40;3.63;;;;;;;6.17;100.00;101945.84;5023647;28;20028;-70
2023/05/16 03:01:14;;;;;;;12.95;3.30;;;;;;;6.22;100.00;101958.88;5035194;28;20038;-70
2023/05/16 03:03:39;;;;;;;12.10;2.80;;;;;;;6.20;100.00;101963.16;5034110;28;20117;-70
2023/05/16 03:06:07;;;;;;;17.95;3.58;;;;;;;6.10;100.00;101952.69;5037226;28;20108;-70
2023/05/16 03:08:34;;;;;;;15.27;2.65;;;;;;;6.15;100.00;101967.38;5034202;28;20072;-70
2023/05/16 03:10:59;;;;;;;12.50;2.88;;;;;;;6.05;100.00;101961.25;5034453;28;20025;-70
2023/05/16 03:13:24;;;;;;;14.40;2.55;;;;;;;6.09;100.00;101971.66;5035094;28;20480;-70
2023/05/16 03:15:50;;;;;;;15.95;2.63;;;;;;;6.07;100.00;101975.06;5045329;28;20103;-71
2023/05/16 03:18:15;;;;;;;12.80;3.22;;;;;;;6.01;100.00;101982.75;5046754;28;20477;-70
2023/05/16 03:20:41;;;;;;;19.38;3.83;;;;;;;5.95;100.00;101978.38;5047949;28;20108;-70
2023/05/16 03:23:07;;;;;;;14.90;3.13;;;;;;;5.85;100.00;101974.75;5033558;28;20041;-70
2023/05/16 03:25:38;;;;;;;14.82;2.67;;;;;;;5.83;100.00;101973.00;5047435;28;20029;-70
2023/05/16 03:28:05;;;;;;;11.32;3.05;;;;;;;5.85;100.00;101984.22;5044908;28;20173;-70
2023/05/16 03:30:34;;;;;;;14.32;3.38;;;;;;;5.82;100.00;101966.94;5037714;28;20032;-70
2023/05/16 03:32:59;;;;;;;16.20;2.88;;;;;;;5.79;100.00;101972.09;5036618;28;20037;-70
2023/05/16 03:35:25;;;;;;;15.52;3.17;;;;;;;5.76;100.00;101981.53;5047329;28;20025;-70
2023/05/16 03:37:51;;;;;;;12.93;3.72;;;;;;;5.72;100.00;101974.53;5047398;28;20043;-70
2023/05/16 03:40:16;;;;;;;13.00;2.97;;;;;;;5.70;100.00;101987.47;5038367;28;20021;-70
2023/05/16 03:42:42;;;;;;;15.65;3.17;;;;;;;5.62;100.00;101976.13;5040908;28;20033;-70
2023/05/16 03:45:07;;;;;;;10.98;2.78;;;;;;;5.58;100.00;101982.09;5034816;28;20123;-70
2023/05/16 03:47:33;;;;;;;11.35;2.80;;;;;;;5.59;100.00;101984.72;5040362;28;20072;-70
2023/05/16 03:49:58;;;;;;;14.90;3.08;;;;;;;5.57;100.00;101981.25;5034146;28;20124;-70
2023/05/16 03:52:24;;;;;;;12.32;2.80;;;;;;;5.56;100.00;101991.56;5035716;28;20537;-70
2023/05/16 03:54:49;;;;;;;13.18;3.10;;;;;;;5.58;100.00;101992.44;5031859;28;20034;-70
2023/05/16 03:57:15;;;;;;;11.60;2.92;;;;;;;5.54;100.00;101994.13;5033663;28;20105;-70
2023/05/16 03:59:40;;;;;;;13.88;3.25;;;;;;;5.48;100.00;101985.41;5047041;28;20033;-70
2023/05/16 04:02:06;;;;;;;13.77;3.15;;;;;;;5.54;100.00;102001.88;5039530;28;20033;-70
2023/05/16 04:04:31;;;;;;;14.27;2.83;;;;;;;5.51;100.00;102006.13;5034190;28;20032;-70
2023/05/16 04:06:56;;;;;;;16.27;3.75;;;;;;;5.48;100.00;102000.91;5031118;28;20511;-70
2023/05/16 04:09:24;;;;;;;18.10;3.40;;;;;;;5.49;100.00;102007.81;5037385;28;20040;-70
2023/05/16 04:11:50;;;;;;;9.32;2.80;;;;;;;5.47;100.00;102001.78;5033558;28;20389;-70
2023/05/16 04:14:15;;;;;;;16.83;3.55;;;;;;;5.51;100.00;102011.31;5032154;28;20032;-70
2023/05/16 04:16:41;;;;;;;17.77;3.30;;;;;;;5.49;100.00;102008.69;5033402;28;20480;-70
2023/05/16 04:19:06;;;;;;;13.82;3.28;;;;;;;5.51;100.00;102013.91;5032727;28;20759;-70
2023/05/16 04:21:32;;;;;;;20.00;3.70;;;;;;;5.49;100.00;102007.81;5033687;28;20037;-70
2023/05/16 04:23:57;;;;;;;8.60;2.55;;;;;;;5.54;100.00;102013.94;5033075;28;20053;-70
2023/05/16 04:26:23;;;;;;;12.13;3.50;;;;;;;5.59;100.00;102018.38;5031303;28;20021;-69
2023/05/16 04:28:49;;;;;;;16.17;3.72;;;;;;;5.59;100.00;102020.94;5033439;28;20045;-70
2023/05/16 04:31:15;;;;;;;9.35;2.90;;;;;;;5.61;100.00;102028.72;5033333;28;20060;-70
2023/05/16 04:33:41;;;;;;;9.75;3.17;;;;;;;5.63;100.00;102014.09;5032440;28;20075;-70
2023/05/16 04:36:06;;;;;;;15.10;3.55;;;;;;;5.68;100.00;102020.19;5033279;28;20028;-70
2023/05/16 04:38:31;;;;;;;15.27;3.28;;;;;;;5.69;100.00;102024.56;5033459;28;20040;-70
2023/05/16 04:40:57;;;;;;;13.90;3.38;;;;;;;5.76;100.00;102031.56;5032151;28;20432;-70
2023/05/16 04:43:22;;;;;;;19.00;3.70;;;;;;;5.78;100.00;102032.44;5032142;28;20045;-70
2023/05/16 04:45:48;;;;;;;14.70;3.13;;;;;;;5.84;100.00;102026.47;5033058;28;20167;-70
2023/05/16 04:48:14;;;;;;;15.38;3.70;;;;;;;5.89;100.00;102023.97;5032096;28;20396;-70
2023/05/16 04:50:39;;;;;;;11.05;2.90;;;;;;;5.97;100.00;102023.25;5032747;28;20042;-70
2023/05/16 04:53:05;;;;;;;11.77;3.60;;;;;;;6.03;100.00;102038.03;5032961;28;20022;-70
2023/05/16 04:55:30;;;;;;;13.05;3.03;;;;;;;6.09;100.00;102053.66;5032167;28;20055;-70
2023/05/16 04:57:55;;;;;;;11.63;3.35;;;;;;;6.14;100.00;102054.56;5032860;28;20034;-70
2023/05/16 05:00:21;;;;;;;18.88;3.95;;;;;;;6.21;100.00;102053.81;5033069;28;20021;-70
2023/05/16 05:02:46;;;;;;;17.85;2.95;;;;;;;6.27;100.00;102048.69;5032187;28;20490;-70
2023/05/16 05:05:11;;;;;;;14.25;3.55;;;;;;;6.36;100.00;102053.16;5032875;28;20087;-70
2023/05/16 05:07:37;;;;;;;11.43;3.40;;;;;;;6.40;100.00;102054.06;5032387;28;20115;-70
2023/05/16 05:10:06;;;;;;;12.13;3.45;;;;;;;6.45;100.00;102045.50;5032193;28;20029;-70
2023/05/16 05:12:31;;;;;;;11.73;3.67;;;;;;;6.53;100.00;102048.19;5031859;28;20029;-70
2023/05/16 05:14:57;;;;;;;16.45;3.78;;;;;;;6.57;100.00;102044.75;5032777;28;20045;-70
2023/05/16 05:17:22;;;;;;;7.75;2.85;;;;;;;6.68;100.00;102044.91;5032061;28;20029;-70
2023/05/16 05:19:50;;;;;;;10.75;2.97;;;;;;;6.75;100.00;102050.19;5032433;28;20041;-70
2023/05/16 05:22:15;;;;;;;14.60;3.65;;;;;;;6.82;100.00;102052.84;5040738;28;20033;-70
2023/05/16 05:24:41;;;;;;;15.77;3.40;;;;;;;6.88;100.00;102056.38;5045371;28;20025;-70
2023/05/16 05:27:06;;;;;;;13.82;3.10;;;;;;;6.93;100.00;102056.41;5038994;28;20037;-70
2023/05/16 05:29:31;;;;;;;16.88;3.13;;;;;;;7.03;100.00;102058.28;5031703;28;20040;-70
2023/05/16 05:31:56;;;;;;;10.73;3.05;;;;;;;7.15;100.00;102057.50;5032554;28;20033;-70
2023/05/16 05:34:22;;;;;;;12.77;2.83;;;;;;;7.22;100.00;102057.56;5032516;28;20527;-70
2023/05/16 05:36:47;;;;;;;14.65;3.38;;;;;;;7.28;100.00;102065.44;5031323;28;20063;-70
2023/05/16 05:39:12;;;;;;;17.33;3.13;;;;;;;7.37;100.00;102072.44;5032691;28;20450;-70
2023/05/16 05:41:40;;;;;;;8.13;2.70;;;;;;;7.44;100.00;102071.63;5032001;28;20021;-70
2023/05/16 05:44:06;;;;;;;12.98;3.97;;;;;;;7.48;100.00;102070.78;5031380;28;20462;-70
2023/05/16 05:46:34;;;;;;;13.50;2.95;;;;;;;7.59;100.00;102075.25;5032330;28;20064;-70
2023/05/16 05:49:00;;;;;;;9.38;2.80;;;;;;;7.67;100.00;102078.75;5031984;28;20515;-70
2023/05/16 05:51:25;;;;;;;12.02;2.67;;;;;;;7.70;100.00;102069.25;5031581;28;20021;-71
2023/05/16 05:53:51;;;;;;;13.73;2.80;;;;;;;7.76;100.00;102062.38;5032403;28;20037;-70
2023/05/16 05:56:17;;;;;;;10.63;2.72;;;;;;;7.87;100.00;102077.16;5032307;28;20052;-70
2023/05/16 05:58:46;;;;;;;17.00;3.00;;;;;;;7.92;100.00;102077.22;5030933;28;20464;-70
2023/05/16 06:01:11;;;;;;;16.80;2.58;;;;;;;8.05;100.00;102086.84;5032108;28;20036;-70
2023/05/16 06:03:36;;;;;;;16.35;3.10;;;;;;;8.11;100.00;102081.69;5032356;28;20033;-70
2023/05/16 06:06:06;;;;;;;15.32;2.85;;;;;;;8.17;100.00;102088.63;5031075;28;20013;-70
2023/05/16 06:08:36;;;;;;;18.67;3.63;;;;;;;8.18;100.00;102077.41;5032428;28;20022;-70
2023/05/16 06:11:01;;;;;;;14.57;3.30;;;;;;;8.32;100.00;102100.84;5027307;28;20045;-70
2023/05/16 06:13:27;;;;;;;14.20;2.92;;;;;;;8.36;100.00;102097.41;5031277;28;20417;-70
2023/05/16 06:15:56;;;;;;;11.40;3.28;;;;;;;8.32;100.00;102082.66;5031831;28;20026;-70
2023/05/16 06:18:22;;;;;;;11.05;3.25;;;;;;;8.45;100.00;102094.91;5032278;28;20021;-70
2023/05/16 06:20:47;;;;;;;10.30;2.95;;;;;;;8.57;100.00;102100.16;5034784;28;20026;-70
2023/05/16 06:23:12;;;;;;;11.05;3.20;;;;;;;8.62;100.00;102110.56;5039355;28;20108;-70
2023/05/16 06:25:38;;;;;;;16.63;4.00;;;;;;;8.68;100.00;102101.06;5042809;28;20126;-70
2023/05/16 06:28:03;;;;;;;13.80;3.63;;;;;;;8.74;100.00;102105.44;5035770;28;20025;-70
2023/05/16 06:30:28;;;;;;;11.45;3.40;;;;;;;8.81;100.00;102112.41;5035831;28;20030;-70
2023/05/16 06:32:53;;;;;;;16.38;2.50;;;;;;;8.81;100.00;102093.34;5031838;28;20040;-70
2023/05/16 06:35:19;;;;;;;11.70;2.70;;;;;;;8.88;100.00;102095.94;5044811;28;20420;-70
2023/05/16 06:37:44;;;;;;;9.93;2.55;;;;;;;8.92;100.00;102094.22;5035449;28;20026;-70
2023/05/16 06:40:10;;;;;;;13.68;3.13;;;;;;;9.01;100.00;102103.81;5033737;28;20167;-70
2023/05/16 06:42:36;;;;;;;9.70;2.60;;;;;;;9.08;100.00;102097.75;5035839;28;20033;-70
2023/05/16 06:45:04;;;;;;;10.93;2.30;;;;;;;9.14;99.40;102103.84;5037453;28;20037;-70
2023/05/16 06:47:32;;;;;;;11.15;2.67;;;;;;;9.24;100.00;102109.06;5026232;28;20029;-69
2023/05/16 06:49:57;;;;;;;10.63;3.10;;;;;;;9.29;100.00;102104.75;5045091;28;20120;-71
2023/05/16 06:52:22;;;;;;;10.27;2.60;;;;;;;9.36;100.00;102114.31;5047616;28;20547;-71
2023/05/16 06:54:48;;;;;;;13.18;2.60;;;;;;;9.45;100.00;102100.41;5034390;28;20036;-71
2023/05/16 06:57:13;;;;;;;12.20;2.83;;;;;;;9.60;100.00;102095.22;5037589;28;20031;-70
2023/05/16 06:59:38;;;;;;;14.43;2.50;;;;;;;9.58;97.47;102087.44;5043692;28;20021;-71
2023/05/16 07:02:04;;;;;;;13.93;2.53;;;;;;;9.59;98.96;102099.56;5034551;28;20354;-71
2023/05/16 07:04:29;;;;;;;11.23;2.45;;;;;;;9.57;97.30;102090.88;5035047;28;20419;-70
2023/05/16 07:06:55;;;;;;;12.57;3.17;;;;;;;9.80;97.86;102101.31;5042771;28;20064;-71
2023/05/16 07:09:20;;;;;;;9.25;2.35;;;;;;;9.91;99.21;102105.63;5032703;28;20026;-71
2023/05/16 07:11:49;;;;;;;9.05;2.17;;;;;;;9.80;96.11;102103.91;5041200;28;20029;-71
2023/05/16 07:14:14;;;;;;;6.82;2.38;;;;;;;9.70;92.88;102098.72;5038802;28;20040;-71
2023/05/16 07:16:40;;;;;;;9.90;1.73;;;;;;;9.76;90.00;102109.13;5033972;28;20026;-71
2023/05/16 07:19:05;;;;;;;12.35;1.85;;;;;;;9.93;89.21;102109.13;5037208;28;20029;-70
2023/05/16 07:21:30;;;;;;;7.82;1.95;;;;;;;10.27;89.73;102107.41;5032918;28;20056;-71
2023/05/16 07:23:56;;;;;;;9.30;1.83;;;;;;;10.44;87.69;102113.44;5033868;28;20057;-71
2023/05/16 07:26:22;;;;;;;6.28;1.75;;;;;;;10.53;86.20;102113.41;5034569;28;20059;-71
2023/05/16 07:28:51;;;;;;;5.90;1.70;;;;;;;10.50;84.92;102108.19;5029311;28;20560;-71
2023/05/16 07:31:19;;;;;;;7.00;1.55;;;;;;;10.50;85.58;102120.38;5033534;28;20037;-70
2023/05/16 07:33:48;;;;;;;10.02;1.95;;;;;;;10.35;81.63;102112.59;5030640;28;21398;-70
2023/05/16 07:36:13;;;;;;;12.82;1.73;;;;;;;10.31;85.10;102120.41;5032631;28;20113;-70
2023/05/16 07:38:38;;;;;;;13.13;2.03;;;;;;;10.37;84.35;102122.13;5045729;28;20104;-72
2023/05/16 07:41:04;;;;;;;11.38;1.70;;;;;;;10.45;85.45;102120.38;5032995;28;20483;-71
2023/05/16 07:43:29;;;;;;;10.98;1.58;;;;;;;10.45;77.66;102098.66;5029310;28;20070;-71
2023/05/16 07:45:57;;;;;;;7.45;1.70;;;;;;;10.68;81.64;102109.88;5027504;28;20061;-71
2023/05/16 07:48:23;;;;;;;7.75;1.67;;;;;;;10.82;75.78;102117.63;5033148;28;20022;-71
2023/05/16 07:50:48;;;;;;;7.28;1.58;;;;;;;11.01;77.80;102119.28;5032860;28;20037;-71
2023/05/16 07:53:13;;;;;;;7.03;2.13;;;;;;;11.35;77.98;102111.28;5034037;28;20067;-70
2023/05/16 07:55:39;;;;;;;10.20;1.80;;;;;;;11.44;74.14;102120.78;5033402;28;20516;-70
2023/05/16 07:58:04;;;;;;;8.05;2.20;;;;;;;11.38;70.96;102126.94;5032777;28;20088;-70
2023/05/16 08:00:29;;;;;;;6.45;1.50;;;;;;;11.52;74.70;102128.59;5026215;28;20021;-71
2023/05/16 08:02:56;;;;;;;8.60;1.73;;;;;;;11.71;72.08;102124.97;5030299;28;20137;-71
2023/05/16 08:05:23;;;;;;;6.30;1.60;;;;;;;11.80;73.99;102122.25;5033348;28;20033;-71
2023/05/16 08:07:48;;;;;;;7.25;1.50;;;;;;;11.86;69.84;102126.59;5033228;28;20466;-71
2023/05/16 08:10:13;;;;;;;4.82;1.60;;;;;;;11.86;70.77;102132.69;5033862;28;20056;-71
2023/05/16 08:12:39;;;;;;;13.50;2.08;;;;;;;11.92;71.21;102135.25;5032735;28;20097;-71
2023/05/16 08:15:04;;;;;;;5.55;1.52;;;;;;;11.91;70.33;102128.31;5033498;28;20462;-71
2023/05/16 08:17:30;;;;;;;7.05;1.90;;;;;;;11.90;72.14;102130.91;5033357;28;20025;-71
2023/05/16 08:19:55;;;;;;;9.35;1.20;;;;;;;11.91;72.72;102125.69;5032666;28;20473;-71
2023/05/16 08:22:20;;;;;;;3.88;1.30;;;;;;;12.07;76.28;102133.41;5033756;28;20022;-71
2023/05/16 08:24:46;;;;;;;8.20;1.48;;;;;;;11.89;69.92;102131.81;5033521;28;20040;-70
2023/05/16 08:27:11;;;;;;;7.78;1.58;;;;;;;11.94;69.37;102133.50;5040356;28;20481;-71
2023/05/16 08:29:36;;;;;;;7.35;1.67;;;;;;;11.76;71.70;102128.38;5031937;28;20039;-71
2023/05/16 08:32:02;;;;;;;6.07;1.27;;;;;;;11.48;73.15;102123.38;5030240;28;20036;-72
2023/05/16 08:34:30;;;;;;;8.02;1.85;;;;;;;11.39;73.11;102127.78;5033356;28;20030;-71
2023/05/16 08:36:56;;;;;;;9.32;1.52;;;;;;;11.62;68.93;102125.03;5033215;28;20052;-71
2023/05/16 08:39:21;;;;;;;3.13;1.50;;;;;;;12.04;72.59;102122.97;5041293;28;20025;-71
2023/05/16 08:41:46;;;;;;;5.22;1.42;;;;;;;12.82;70.47;102120.38;5026971;28;20030;-73
2023/05/16 08:44:19;;;;;;;6.97;1.35;;;;;;;13.36;65.13;102127.53;5040749;28;20493;-71
2023/05/16 08:46:50;;;;;;;6.72;1.63;;;;;;;13.47;62.27;102116.88;5042702;28;20029;-71
2023/05/16 08:49:16;;;;;;;3.90;1.45;;;;;;;13.55;61.81;102112.41;5042953;28;20021;-71
2023/05/16 08:51:42;;;;;;;5.18;1.70;;;;;;;13.36;62.45;102109.19;5032291;28;20033;-71
2023/05/16 08:54:13;;;;;;;5.80;1.45;;;;;;;12.89;61.96;102105.47;5045734;28;20032;-71
2023/05/16 08:56:40;;;;;;;5.22;1.50;;;;;;;12.46;65.04;102107.72;5045740;28;20029;-72
2023/05/16 08:59:06;;;;;;;7.50;1.58;;;;;;;12.57;70.44;102113.69;5032862;28;20126;-71
2023/05/16 09:01:32;;;;;;;5.00;1.75;;;;;;;12.80;64.43;102114.28;5030372;28;20035;-71
2023/05/16 09:03:59;;;;;;;6.57;1.40;;;;;;;13.23;66.70;102111.09;5027910;28;20038;-71
2023/05/16 09:06:25;;;;;;;6.88;1.65;;;;;;;13.78;66.95;102104.19;5031194;28;20495;-71
2023/05/16 09:08:51;;;;;;;3.97;1.80;;;;;;;14.00;59.17;102102.06;5030592;28;20022;-71
2023/05/16 09:11:17;;;;;;;8.30;1.65;;;;;;;14.07;59.82;102105.44;5029049;28;20159;-71
2023/05/16 09:13:42;;;;;;;5.63;1.63;;;;;;;14.14;65.29;102109.66;5032386;28;20405;-72
2023/05/16 09:16:13;;;;;;;9.15;2.60;;;;;;;14.06;66.01;102109.81;5039108;28;20033;-71
2023/05/16 09:18:39;;;;;;;6.53;2.03;;;;;;;13.75;63.23;102123.44;5032394;28;20415;-71
2023/05/16 09:21:09;;;;;;;7.40;1.77;;;;;;;13.34;59.70;102124.06;5032732;28;20112;-71
2023/05/16 09:23:35;;;;;;;5.43;1.80;;;;;;;13.50;61.54;102116.84;5034406;28;20388;-72
2023/05/16 09:26:01;;;;;;;6.22;1.55;;;;;;;13.86;60.14;102097.03;5035583;28;20025;-72
2023/05/16 09:28:27;;;;;;;7.50;1.70;;;;;;;14.26;60.78;102107.69;5031492;28;20027;-72
2023/05/16 09:30:53;;;;;;;4.10;1.50;;;;;;;14.41;56.57;102093.41;5029420;28;20030;-71
2023/05/16 09:33:21;;;;;;;6.55;1.55;;;;;;;14.32;58.24;102116.31;5031475;28;20040;-73
2023/05/16 09:35:54;;;;;;;6.13;1.40;;;;;;;13.91;57.20;102110.94;5030211;28;20099;-71
2023/05/16 09:38:19;;;;;;;10.80;1.87;;;;;;;13.87;54.92;102105.78;5033882;28;20021;-72
2023/05/16 09:40:45;;;;;;;5.35;1.15;;;;;;;14.10;56.37;102106.25;5026647;28;20026;-71
2023/05/16 09:43:15;;;;;;;5.40;1.50;;;;;;;14.55;56.21;102106.31;5027932;28;20028;-71
2023/05/16 09:45:44;;;;;;;4.63;1.40;;;;;;;14.95;53.38;102095.84;5031785;28;20504;-71
2023/05/16 09:48:13;;;;;;;10.63;1.70;;;;;;;15.22;51.90;102102.22;5031834;28;20034;-71
2023/05/16 09:50:39;;;;;;;9.27;1.83;;;;;;;15.19;55.20;102109.31;5031205;28;20108;-71
2023/05/16 09:53:05;;;;;;;5.80;1.60;;;;;;;14.62;54.28;102105.28;5033938;28;20053;-71
2023/05/16 09:55:31;;;;;;;5.90;1.42;;;;;;;14.29;56.45;102118.13;5036572;28;20108;-71
2023/05/16 09:57:57;;;;;;;8.45;1.98;;;;;;;13.88;57.54;102118.00;5035181;28;20021;-71
2023/05/16 10:00:28;;;;;;;6.68;1.50;;;;;;;13.47;58.06;102123.03;5036346;28;20079;-71
2023/05/16 10:02:56;;;;;;;5.03;1.77;;;;;;;13.12;61.87;102128.72;5035722;28;20029;-71
2023/05/16 10:05:22;;;;;;;5.15;1.55;;;;;;;13.01;59.42;102120.13;5027169;28;20038;-71
2023/05/16 10:07:49;;;;;;;9.02;2.30;;;;;;;13.52;61.22;102117.69;5035298;28;20458;-71
2023/05/16 10:10:15;;;;;;;3.92;1.30;;;;;;;14.20;60.27;102114.81;5041513;28;20044;-72
2023/05/16 10:12:41;;;;;;;4.32;1.38;;;;;;;14.42;55.86;102108.28;5034627;28;20017;-72
2023/05/16 10:15:07;;;;;;;7.30;1.23;;;;;;;14.27;52.40;102116.41;5032878;28;20041;-72
2023/05/16 10:17:35;;;;;;;4.00;1.48;;;;;;;14.26;53.50;102114.69;5034804;28;20097;-71
2023/05/16 10:20:04;;;;;;;5.55;1.40;;;;;;;14.49;54.69;102103.78;5032526;28;20025;-71
2023/05/16 10:22:33;;;;;;;4.70;1.05;;;;;;;14.80;52.95;102116.28;5030959;28;20057;-70
2023/05/16 10:25:07;;;;;;;5.28;1.02;;;;;;;15.14;51.36;102103.28;5030054;28;20029;-71
2023/05/16 10:27:33;;;;;;;7.15;1.40;;;;;;;15.54;49.71;102105.00;5028317;28;20128;-71
2023/05/16 10:29:59;;;;;;;4.93;1.33;;;;;;;15.97;48.73;102104.81;5035819;28;20037;-71
2023/05/16 10:32:25;;;;;;;7.80;1.58;;;;;;;16.16;49.91;102107.84;5042056;28;20025;-71
2023/05/16 10:34:51;;;;;;;7.20;1.20;;;;;;;15.75;49.22;102104.50;5039558;28;20026;-71
2023/05/16 10:37:17;;;;;;;5.47;1.45;;;;;;;15.32;52.27;102104.66;5035802;28;20052;-71
2023/05/16 10:39:43;;;;;;;4.55;1.15;;;;;;;14.77;50.76;102113.72;5034570;28;20057;-71
2023/05/16 10:42:17;;;;;;;5.72;1.40;;;;;;;14.65;53.48;102114.81;5022391;28;20060;-71
2023/05/16 10:44:42;;;;;;;4.35;1.25;;;;;;;15.16;53.29;102099.72;5032110;28;20480;-71
2023/05/16 10:47:08;;;;;;;5.15;1.20;;;;;;;15.85;49.40;102099.88;5033630;28;20021;-71
2023/05/16 10:49:33;;;;;;;4.97;1.48;;;;;;;16.40;47.59;102098.41;5039846;28;20052;-72
2023/05/16 10:52:09;;;;;;;7.60;1.88;;;;;;;16.67;48.33;102094.13;5034806;28;20033;-71
2023/05/16 10:54:36;;;;;;;7.45;1.27;;;;;;;16.27;45.95;102097.88;5034039;28;20041;-72
2023/05/16 10:57:10;;;;;;;7.40;1.50;;;;;;;16.13;49.86;102111.41;5033496;28;20033;-71
2023/05/16 10:59:49;;;;;;;5.60;1.15;;;;;;;16.15;48.80;102099.09;5040155;28;20033;-71
2023/05/16 11:02:33;;;;;;;6.32;1.83;;;;;;;16.42;50.83;102104.50;5036314;28;20022;-71
2023/05/16 11:05:00;;;;;;;3.17;1.40;;;;;;;16.83;43.94;102098.06;5036090;28;20132;-71
2023/05/16 11:07:31;;;;;;;5.93;1.40;;;;;;;17.21;47.12;102101.31;5038078;28;20072;-71
2023/05/16 11:10:07;;;;;;;5.75;1.50;;;;;;;16.70;46.12;102094.03;5029346;28;20499;-71
2023/05/16 11:12:41;;;;;;;8.32;1.73;;;;;;;15.95;47.29;102103.13;5030886;28;20384;-71
2023/05/16 11:15:25;;;;;;;;;;;;;;;15.87;50.20;102119.13;5034596;28;20026;-71
2023/05/16 11:18:03;;;;;;;4.40;1.30;;;;;;;16.19;48.97;102104.28;5042699;28;19924;-71
2023/05/16 11:20:31;;;;;;;6.68;1.58;;;;;;;16.65;49.29;102101.22;5032642;28;20044;-71